sensor_id;sensor_type;location;lat;lon;timestamp;temperature;humidity
77039;DHT22;65970;50.476;4.840;2023-10-08T00:04:02;19.70;34.20
77039;DHT22;65970;50.476;4.840;2023-10-08T00:09:02;19.70;34.40
77039;DHT22;65970;50.476;4.840;2023-10-08T00:14:06;19.60;34.30
77039;DHT22;65970;50.476;4.840;2023-10-08T00:19:07;19.60;34.20
77039;DHT22;65970;50.476;4.840;2023-10-08T00:24:07;19.60;33.90
77039;DHT22;65970;50.476;4.840;2023-10-08T00:29:09;19.50;34.00
77039;DHT22;65970;50.476;4.840;2023-10-08T00:34:09;19.50;34.10
77039;DHT22;65970;50.476;4.840;2023-10-08T00:39:11;19.50;34.20
77039;DHT22;65970;50.476;4.840;2023-10-08T00:44:13;19.40;34.10
77039;DHT22;65970;50.476;4.840;2023-10-08T00:49:20;19.40;34.10
77039;DHT22;65970;50.476;4.840;2023-10-08T00:54:21;19.40;34.20
77039;DHT22;65970;50.476;4.840;2023-10-08T00:59:22;19.40;33.90
77039;DHT22;65970;50.476;4.840;2023-10-08T01:04:23;19.30;34.00
77039;DHT22;65970;50.476;4.840;2023-10-08T01:09:23;19.30;34.00
77039;DHT22;65970;50.476;4.840;2023-10-08T01:14:24;19.30;33.80
77039;DHT22;65970;50.476;4.840;2023-10-08T01:19:25;19.30;33.90
77039;DHT22;65970;50.476;4.840;2023-10-08T01:24:25;19.20;33.50
77039;DHT22;65970;50.476;4.840;2023-10-08T01:29:26;19.20;33.80
77039;DHT22;65970;50.476;4.840;2023-10-08T01:34:26;19.20;33.70
77039;DHT22;65970;50.476;4.840;2023-10-08T01:39:27;19.10;33.90
77039;DHT22;65970;50.476;4.840;2023-10-08T01:44:27;19.10;33.50
77039;DHT22;65970;50.476;4.840;2023-10-08T01:49:28;19.10;33.90
77039;DHT22;65970;50.476;4.840;2023-10-08T01:54:30;19.10;33.80
77039;DHT22;65970;50.476;4.840;2023-10-08T01:59:31;19.10;33.80
77039;DHT22;65970;50.476;4.840;2023-10-08T02:04:33;19.00;33.30
77039;DHT22;65970;50.476;4.840;2023-10-08T02:09:34;19.00;33.60
77039;DHT22;65970;50.476;4.840;2023-10-08T02:14:34;18.90;33.50
77039;DHT22;65970;50.476;4.840;2023-10-08T02:19:35;18.90;33.50
77039;DHT22;65970;50.476;4.840;2023-10-08T02:24:36;18.90;33.60
77039;DHT22;65970;50.476;4.840;2023-10-08T02:29:37;18.90;33.50
77039;DHT22;65970;50.476;4.840;2023-10-08T02:34:37;18.80;33.20
77039;DHT22;65970;50.476;4.840;2023-10-08T02:39:38;18.80;33.10
77039;DHT22;65970;50.476;4.840;2023-10-08T02:44:38;18.80;33.20
77039;DHT22;65970;50.476;4.840;2023-10-08T02:49:39;18.70;32.60
77039;DHT22;65970;50.476;4.840;2023-10-08T02:54:40;18.70;32.60
77039;DHT22;65970;50.476;4.840;2023-10-08T02:59:40;18.70;33.20
77039;DHT22;65970;50.476;4.840;2023-10-08T03:04:42;18.70;33.10
77039;DHT22;65970;50.476;4.840;2023-10-08T03:09:42;18.60;32.70
77039;DHT22;65970;50.476;4.840;2023-10-08T03:14:43;18.60;32.60
77039;DHT22;65970;50.476;4.840;2023-10-08T03:19:44;18.50;32.40
77039;DHT22;65970;50.476;4.840;2023-10-08T03:24:44;18.50;32.40
77039;DHT22;65970;50.476;4.840;2023-10-08T03:29:45;18.50;32.50
77039;DHT22;65970;50.476;4.840;2023-10-08T03:34:50;18.40;31.10
77039;DHT22;65970;50.476;4.840;2023-10-08T03:39:50;18.40;31.90
77039;DHT22;65970;50.476;4.840;2023-10-08T03:44:51;18.40;32.10
77039;DHT22;65970;50.476;4.840;2023-10-08T03:49:52;18.30;32.00
77039;DHT22;65970;50.476;4.840;2023-10-08T03:54:53;18.30;32.00
77039;DHT22;65970;50.476;4.840;2023-10-08T03:59:53;18.30;32.00
77039;DHT22;65970;50.476;4.840;2023-10-08T04:04:54;18.20;31.90
77039;DHT22;65970;50.476;4.840;2023-10-08T04:09:57;18.20;32.10
77039;DHT22;65970;50.476;4.840;2023-10-08T04:14:58;18.10;32.00
77039;DHT22;65970;50.476;4.840;2023-10-08T04:19:58;18.10;32.00
77039;DHT22;65970;50.476;4.840;2023-10-08T04:24:59;18.10;32.00
77039;DHT22;65970;50.476;4.840;2023-10-08T04:29:59;18.00;32.10
77039;DHT22;65970;50.476;4.840;2023-10-08T04:35:00;18.00;31.90
77039;DHT22;65970;50.476;4.840;2023-10-08T04:40:00;18.00;32.00
77039;DHT22;65970;50.476;4.840;2023-10-08T04:45:01;17.90;32.10
77039;DHT22;65970;50.476;4.840;2023-10-08T04:50:01;17.90;32.10
77039;DHT22;65970;50.476;4.840;2023-10-08T04:55:02;17.90;32.20
77039;DHT22;65970;50.476;4.840;2023-10-08T05:00:03;17.80;32.20
77039;DHT22;65970;50.476;4.840;2023-10-08T05:05:04;17.80;32.20
77039;DHT22;65970;50.476;4.840;2023-10-08T05:10:05;17.80;32.30
77039;DHT22;65970;50.476;4.840;2023-10-08T05:15:06;17.80;32.30
77039;DHT22;65970;50.476;4.840;2023-10-08T05:20:07;17.70;32.50
77039;DHT22;65970;50.476;4.840;2023-10-08T05:25:08;17.70;32.50
77039;DHT22;65970;50.476;4.840;2023-10-08T05:30:09;17.70;32.60
77039;DHT22;65970;50.476;4.840;2023-10-08T05:35:09;17.60;32.50
77039;DHT22;65970;50.476;4.840;2023-10-08T05:40:10;17.60;32.50
77039;DHT22;65970;50.476;4.840;2023-10-08T05:45:11;17.60;32.50
77039;DHT22;65970;50.476;4.840;2023-10-08T05:50:11;17.50;32.70
77039;DHT22;65970;50.476;4.840;2023-10-08T05:55:12;17.50;32.60
77039;DHT22;65970;50.476;4.840;2023-10-08T06:00:13;17.50;32.70
77039;DHT22;65970;50.476;4.840;2023-10-08T06:05:14;17.40;32.60
77039;DHT22;65970;50.476;4.840;2023-10-08T06:10:15;17.40;32.50
77039;DHT22;65970;50.476;4.840;2023-10-08T06:15:15;17.40;32.70
77039;DHT22;65970;50.476;4.840;2023-10-08T06:20:16;17.30;32.70
77039;DHT22;65970;50.476;4.840;2023-10-08T06:25:16;17.30;32.90
77039;DHT22;65970;50.476;4.840;2023-10-08T06:30:17;17.30;32.90
77039;DHT22;65970;50.476;4.840;2023-10-08T06:35:18;17.30;33.10
77039;DHT22;65970;50.476;4.840;2023-10-08T06:40:18;17.20;33.10
77039;DHT22;65970;50.476;4.840;2023-10-08T06:45:19;17.20;33.20
77039;DHT22;65970;50.476;4.840;2023-10-08T06:50:19;17.20;33.40
77039;DHT22;65970;50.476;4.840;2023-10-08T06:55:20;17.20;33.60
77039;DHT22;65970;50.476;4.840;2023-10-08T07:00:20;17.20;33.70
77039;DHT22;65970;50.476;4.840;2023-10-08T07:05:21;17.20;33.80
77039;DHT22;65970;50.476;4.840;2023-10-08T07:10:21;17.20;34.00
77039;DHT22;65970;50.476;4.840;2023-10-08T07:15:22;17.10;34.30
77039;DHT22;65970;50.476;4.840;2023-10-08T07:20:23;17.10;34.30
77039;DHT22;65970;50.476;4.840;2023-10-08T07:25:23;17.10;34.60
77039;DHT22;65970;50.476;4.840;2023-10-08T07:30:24;17.20;34.40
77039;DHT22;65970;50.476;4.840;2023-10-08T07:35:24;17.10;34.10
77039;DHT22;65970;50.476;4.840;2023-10-08T07:40:28;17.10;33.90
77039;DHT22;65970;50.476;4.840;2023-10-08T07:45:28;17.20;34.00
77039;DHT22;65970;50.476;4.840;2023-10-08T07:50:29;17.20;33.80
77039;DHT22;65970;50.476;4.840;2023-10-08T07:55:30;17.20;33.90
77039;DHT22;65970;50.476;4.840;2023-10-08T08:00:30;17.20;33.80
77039;DHT22;65970;50.476;4.840;2023-10-08T08:05:31;17.20;33.60
77039;DHT22;65970;50.476;4.840;2023-10-08T08:10:32;17.20;33.40
77039;DHT22;65970;50.476;4.840;2023-10-08T08:15:33;17.20;33.40
77039;DHT22;65970;50.476;4.840;2023-10-08T08:20:36;17.30;33.50
77039;DHT22;65970;50.476;4.840;2023-10-08T08:25:40;17.40;33.70
77039;DHT22;65970;50.476;4.840;2023-10-08T08:30:41;17.40;33.50
77039;DHT22;65970;50.476;4.840;2023-10-08T08:35:44;17.40;33.50
77039;DHT22;65970;50.476;4.840;2023-10-08T08:40:45;17.50;33.60
77039;DHT22;65970;50.476;4.840;2023-10-08T08:45:45;17.50;33.40
77039;DHT22;65970;50.476;4.840;2023-10-08T08:50:46;17.60;33.40
77039;DHT22;65970;50.476;4.840;2023-10-08T08:55:50;17.60;33.50
77039;DHT22;65970;50.476;4.840;2023-10-08T09:00:52;17.70;33.60
77039;DHT22;65970;50.476;4.840;2023-10-08T09:05:53;17.70;33.40
77039;DHT22;65970;50.476;4.840;2023-10-08T09:10:57;17.80;33.50
77039;DHT22;65970;50.476;4.840;2023-10-08T09:16:15;17.80;33.50
77039;DHT22;65970;50.476;4.840;2023-10-08T09:21:18;17.90;33.50
77039;DHT22;65970;50.476;4.840;2023-10-08T09:26:25;17.90;33.40
77039;DHT22;65970;50.476;4.840;2023-10-08T09:31:26;18.00;33.30
77039;DHT22;65970;50.476;4.840;2023-10-08T09:36:29;18.00;33.20
77039;DHT22;65970;50.476;4.840;2023-10-08T09:41:31;18.10;33.20
77039;DHT22;65970;50.476;4.840;2023-10-08T09:46:32;18.10;33.20
77039;DHT22;65970;50.476;4.840;2023-10-08T09:51:33;18.20;33.10
77039;DHT22;65970;50.476;4.840;2023-10-08T09:56:36;18.30;33.20
77039;DHT22;65970;50.476;4.840;2023-10-08T10:01:41;18.30;33.10
77039;DHT22;65970;50.476;4.840;2023-10-08T10:06:42;18.40;33.20
77039;DHT22;65970;50.476;4.840;2023-10-08T10:11:50;18.50;33.30
77039;DHT22;65970;50.476;4.840;2023-10-08T10:17:10;18.50;33.40
77039;DHT22;65970;50.476;4.840;2023-10-08T10:22:14;18.60;33.30
77039;DHT22;65970;50.476;4.840;2023-10-08T10:27:26;18.60;33.50
77039;DHT22;65970;50.476;4.840;2023-10-08T10:32:27;18.70;33.70
77039;DHT22;65970;50.476;4.840;2023-10-08T10:37:27;18.80;33.80
77039;DHT22;65970;50.476;4.840;2023-10-08T10:42:28;18.90;33.90
77039;DHT22;65970;50.476;4.840;2023-10-08T10:47:29;19.00;33.90
77039;DHT22;65970;50.476;4.840;2023-10-08T10:52:29;19.00;34.10
77039;DHT22;65970;50.476;4.840;2023-10-08T10:57:30;19.10;34.00
77039;DHT22;65970;50.476;4.840;2023-10-08T11:02:31;19.10;34.00
77039;DHT22;65970;50.476;4.840;2023-10-08T11:07:31;19.20;34.00
77039;DHT22;65970;50.476;4.840;2023-10-08T11:12:33;19.30;34.20
77039;DHT22;65970;50.476;4.840;2023-10-08T11:17:35;19.30;34.20
77039;DHT22;65970;50.476;4.840;2023-10-08T11:22:42;19.30;34.40
77039;DHT22;65970;50.476;4.840;2023-10-08T11:27:42;19.40;34.60
77039;DHT22;65970;50.476;4.840;2023-10-08T11:32:43;19.40;34.60
77039;DHT22;65970;50.476;4.840;2023-10-08T11:37:47;19.40;34.70
77039;DHT22;65970;50.476;4.840;2023-10-08T11:42:48;19.50;34.80
77039;DHT22;65970;50.476;4.840;2023-10-08T11:47:48;19.50;34.90
77039;DHT22;65970;50.476;4.840;2023-10-08T11:52:49;19.60;34.90
77039;DHT22;65970;50.476;4.840;2023-10-08T11:57:49;19.60;35.00
77039;DHT22;65970;50.476;4.840;2023-10-08T12:02:51;19.70;35.10
77039;DHT22;65970;50.476;4.840;2023-10-08T12:07:55;19.70;35.20
77039;DHT22;65970;50.476;4.840;2023-10-08T12:12:55;19.80;35.30
77039;DHT22;65970;50.476;4.840;2023-10-08T12:17:56;19.80;35.30
77039;DHT22;65970;50.476;4.840;2023-10-08T12:22:56;19.90;35.40
77039;DHT22;65970;50.476;4.840;2023-10-08T12:27:57;19.90;35.40
77039;DHT22;65970;50.476;4.840;2023-10-08T12:32:59;20.00;35.50
77039;DHT22;65970;50.476;4.840;2023-10-08T12:37:59;20.10;35.60
77039;DHT22;65970;50.476;4.840;2023-10-08T12:43:00;20.20;35.70
77039;DHT22;65970;50.476;4.840;2023-10-08T12:48:00;20.20;35.70
77039;DHT22;65970;50.476;4.840;2023-10-08T12:53:01;20.30;35.80
77039;DHT22;65970;50.476;4.840;2023-10-08T12:58:01;20.40;35.80
77039;DHT22;65970;50.476;4.840;2023-10-08T13:03:02;20.40;35.80
77039;DHT22;65970;50.476;4.840;2023-10-08T13:08:03;20.60;35.90
77039;DHT22;65970;50.476;4.840;2023-10-08T13:13:03;20.60;35.90
77039;DHT22;65970;50.476;4.840;2023-10-08T13:18:04;20.70;36.00
77039;DHT22;65970;50.476;4.840;2023-10-08T13:23:05;20.80;36.00
77039;DHT22;65970;50.476;4.840;2023-10-08T13:28:06;20.90;36.10
77039;DHT22;65970;50.476;4.840;2023-10-08T13:33:06;20.90;36.10
77039;DHT22;65970;50.476;4.840;2023-10-08T13:38:07;21.00;36.20
77039;DHT22;65970;50.476;4.840;2023-10-08T13:43:07;21.10;36.30
77039;DHT22;65970;50.476;4.840;2023-10-08T13:48:08;21.20;36.40
77039;DHT22;65970;50.476;4.840;2023-10-08T13:53:08;21.30;36.50
77039;DHT22;65970;50.476;4.840;2023-10-08T13:58:09;21.30;36.60
77039;DHT22;65970;50.476;4.840;2023-10-08T14:03:09;21.40;36.60
77039;DHT22;65970;50.476;4.840;2023-10-08T14:08:10;21.50;36.80
77039;DHT22;65970;50.476;4.840;2023-10-08T14:13:10;21.50;36.90
77039;DHT22;65970;50.476;4.840;2023-10-08T14:18:11;21.60;36.90
77039;DHT22;65970;50.476;4.840;2023-10-08T14:23:12;21.60;36.80
77039;DHT22;65970;50.476;4.840;2023-10-08T14:28:13;21.70;37.00
77039;DHT22;65970;50.476;4.840;2023-10-08T14:33:13;21.80;37.00
77039;DHT22;65970;50.476;4.840;2023-10-08T14:38:14;21.80;37.00
77039;DHT22;65970;50.476;4.840;2023-10-08T14:43:15;21.80;37.10
77039;DHT22;65970;50.476;4.840;2023-10-08T14:48:15;21.90;37.30
77039;DHT22;65970;50.476;4.840;2023-10-08T14:53:16;22.00;37.30
77039;DHT22;65970;50.476;4.840;2023-10-08T14:58:16;22.00;37.30
77039;DHT22;65970;50.476;4.840;2023-10-08T15:03:17;22.00;37.40
77039;DHT22;65970;50.476;4.840;2023-10-08T15:08:17;22.00;37.40
77039;DHT22;65970;50.476;4.840;2023-10-08T15:13:18;22.00;37.50
77039;DHT22;65970;50.476;4.840;2023-10-08T15:18:18;22.00;37.50
77039;DHT22;65970;50.476;4.840;2023-10-08T15:23:19;22.10;37.70
77039;DHT22;65970;50.476;4.840;2023-10-08T15:28:19;22.00;36.30
77039;DHT22;65970;50.476;4.840;2023-10-08T15:33:20;22.00;37.60
77039;DHT22;65970;50.476;4.840;2023-10-08T15:38:20;22.00;37.50
77039;DHT22;65970;50.476;4.840;2023-10-08T15:43:21;22.00;37.50
77039;DHT22;65970;50.476;4.840;2023-10-08T15:48:21;22.10;37.70
77039;DHT22;65970;50.476;4.840;2023-10-08T15:53:22;22.10;37.70
77039;DHT22;65970;50.476;4.840;2023-10-08T15:58:23;22.10;37.70
77039;DHT22;65970;50.476;4.840;2023-10-08T16:03:23;22.10;37.70
77039;DHT22;65970;50.476;4.840;2023-10-08T16:08:24;22.10;37.70
77039;DHT22;65970;50.476;4.840;2023-10-08T16:13:24;22.10;37.70
77039;DHT22;65970;50.476;4.840;2023-10-08T16:18:25;22.10;37.70
77039;DHT22;65970;50.476;4.840;2023-10-08T16:23:26;22.10;37.80
77039;DHT22;65970;50.476;4.840;2023-10-08T16:28:26;22.10;37.70
77039;DHT22;65970;50.476;4.840;2023-10-08T16:33:27;22.10;37.70
77039;DHT22;65970;50.476;4.840;2023-10-08T16:38:27;22.10;37.70
77039;DHT22;65970;50.476;4.840;2023-10-08T16:43:30;22.10;37.80
77039;DHT22;65970;50.476;4.840;2023-10-08T16:48:31;22.10;37.80
77039;DHT22;65970;50.476;4.840;2023-10-08T16:53:32;22.10;37.80
77039;DHT22;65970;50.476;4.840;2023-10-08T16:58:33;22.10;37.80
77039;DHT22;65970;50.476;4.840;2023-10-08T17:03:33;22.10;37.90
77039;DHT22;65970;50.476;4.840;2023-10-08T17:08:34;22.00;37.90
77039;DHT22;65970;50.476;4.840;2023-10-08T17:13:35;22.10;37.90
77039;DHT22;65970;50.476;4.840;2023-10-08T17:18:35;22.00;37.70
77039;DHT22;65970;50.476;4.840;2023-10-08T17:23:36;22.00;37.60
77039;DHT22;65970;50.476;4.840;2023-10-08T17:28:36;22.00;37.50
77039;DHT22;65970;50.476;4.840;2023-10-08T17:33:37;22.00;37.10
77039;DHT22;65970;50.476;4.840;2023-10-08T17:38:37;22.00;36.70
77039;DHT22;65970;50.476;4.840;2023-10-08T17:43:38;21.90;36.80
77039;DHT22;65970;50.476;4.840;2023-10-08T17:48:38;21.90;36.40
77039;DHT22;65970;50.476;4.840;2023-10-08T17:53:39;21.80;35.80
77039;DHT22;65970;50.476;4.840;2023-10-08T17:58:40;21.80;35.40
77039;DHT22;65970;50.476;4.840;2023-10-08T18:03:41;21.80;36.40
77039;DHT22;65970;50.476;4.840;2023-10-08T18:08:42;21.80;35.90
77039;DHT22;65970;50.476;4.840;2023-10-08T18:13:43;21.70;36.10
77039;DHT22;65970;50.476;4.840;2023-10-08T18:18:45;21.70;35.50
77039;DHT22;65970;50.476;4.840;2023-10-08T18:23:45;21.70;35.70
77039;DHT22;65970;50.476;4.840;2023-10-08T18:28:46;21.60;34.90
77039;DHT22;65970;50.476;4.840;2023-10-08T18:33:46;21.60;34.80
77039;DHT22;65970;50.476;4.840;2023-10-08T18:38:47;21.60;34.50
77039;DHT22;65970;50.476;4.840;2023-10-08T18:43:47;21.60;34.40
77039;DHT22;65970;50.476;4.840;2023-10-08T18:48:48;21.50;33.40
77039;DHT22;65970;50.476;4.840;2023-10-08T18:53:49;21.50;34.20
77039;DHT22;65970;50.476;4.840;2023-10-08T18:58:49;21.40;34.00
77039;DHT22;65970;50.476;4.840;2023-10-08T19:03:50;21.40;34.00
77039;DHT22;65970;50.476;4.840;2023-10-08T19:08:51;21.30;34.00
77039;DHT22;65970;50.476;4.840;2023-10-08T19:13:52;21.30;34.00
77039;DHT22;65970;50.476;4.840;2023-10-08T19:18:52;21.30;33.10
77039;DHT22;65970;50.476;4.840;2023-10-08T19:23:54;21.30;34.00
77039;DHT22;65970;50.476;4.840;2023-10-08T19:28:55;21.20;33.90
77039;DHT22;65970;50.476;4.840;2023-10-08T19:33:56;21.20;33.90
77039;DHT22;65970;50.476;4.840;2023-10-08T19:38:57;21.10;33.90
77039;DHT22;65970;50.476;4.840;2023-10-08T19:43:57;21.10;33.90
77039;DHT22;65970;50.476;4.840;2023-10-08T19:48:58;21.10;33.90
77039;DHT22;65970;50.476;4.840;2023-10-08T19:53:58;21.00;33.80
77039;DHT22;65970;50.476;4.840;2023-10-08T19:58:59;21.00;33.80
77039;DHT22;65970;50.476;4.840;2023-10-08T20:03:59;21.00;33.90
77039;DHT22;65970;50.476;4.840;2023-10-08T20:09:00;20.90;33.80
77039;DHT22;65970;50.476;4.840;2023-10-08T20:14:00;20.90;33.70
77039;DHT22;65970;50.476;4.840;2023-10-08T20:19:01;20.90;33.80
77039;DHT22;65970;50.476;4.840;2023-10-08T20:24:02;20.80;33.70
77039;DHT22;65970;50.476;4.840;2023-10-08T20:29:02;20.80;33.70
77039;DHT22;65970;50.476;4.840;2023-10-08T20:34:03;20.70;33.80
77039;DHT22;65970;50.476;4.840;2023-10-08T20:39:04;20.70;32.90
77039;DHT22;65970;50.476;4.840;2023-10-08T20:44:04;20.70;33.90
77039;DHT22;65970;50.476;4.840;2023-10-08T20:49:05;20.70;33.80
77039;DHT22;65970;50.476;4.840;2023-10-08T20:54:05;20.60;33.80
77039;DHT22;65970;50.476;4.840;2023-10-08T20:59:06;20.60;33.80
77039;DHT22;65970;50.476;4.840;2023-10-08T21:04:07;20.60;33.70
77039;DHT22;65970;50.476;4.840;2023-10-08T21:09:07;20.50;33.60
77039;DHT22;65970;50.476;4.840;2023-10-08T21:14:08;20.50;33.80
77039;DHT22;65970;50.476;4.840;2023-10-08T21:19:08;20.40;33.80
77039;DHT22;65970;50.476;4.840;2023-10-08T21:24:09;20.40;33.90
77039;DHT22;65970;50.476;4.840;2023-10-08T21:29:09;20.40;34.00
77039;DHT22;65970;50.476;4.840;2023-10-08T21:34:10;20.30;34.20
77039;DHT22;65970;50.476;4.840;2023-10-08T21:39:11;20.30;34.30
77039;DHT22;65970;50.476;4.840;2023-10-08T21:44:11;20.30;34.30
77039;DHT22;65970;50.476;4.840;2023-10-08T21:49:12;20.30;33.50
77039;DHT22;65970;50.476;4.840;2023-10-08T21:54:12;20.20;34.40
77039;DHT22;65970;50.476;4.840;2023-10-08T21:59:13;20.20;34.60
77039;DHT22;65970;50.476;4.840;2023-10-08T22:04:13;20.20;34.60
77039;DHT22;65970;50.476;4.840;2023-10-08T22:09:14;20.10;34.70
77039;DHT22;65970;50.476;4.840;2023-10-08T22:14:14;20.10;34.80
77039;DHT22;65970;50.476;4.840;2023-10-08T22:19:15;20.10;34.90
77039;DHT22;65970;50.476;4.840;2023-10-08T22:24:15;20.10;35.10
77039;DHT22;65970;50.476;4.840;2023-10-08T22:29:16;20.10;35.20
77039;DHT22;65970;50.476;4.840;2023-10-08T22:34:17;20.00;35.20
77039;DHT22;65970;50.476;4.840;2023-10-08T22:39:18;20.00;35.30
77039;DHT22;65970;50.476;4.840;2023-10-08T22:44:18;20.00;35.30
77039;DHT22;65970;50.476;4.840;2023-10-08T22:49:19;20.00;35.30
77039;DHT22;65970;50.476;4.840;2023-10-08T22:54:19;19.90;35.40
77039;DHT22;65970;50.476;4.840;2023-10-08T22:59:20;19.90;35.50
77039;DHT22;65970;50.476;4.840;2023-10-08T23:04:20;19.90;35.50
77039;DHT22;65970;50.476;4.840;2023-10-08T23:09:21;19.80;35.40
77039;DHT22;65970;50.476;4.840;2023-10-08T23:14:21;19.80;35.30
77039;DHT22;65970;50.476;4.840;2023-10-08T23:19:23;19.80;35.30
77039;DHT22;65970;50.476;4.840;2023-10-08T23:24:23;19.80;35.30
77039;DHT22;65970;50.476;4.840;2023-10-08T23:29:24;19.70;35.20
77039;DHT22;65970;50.476;4.840;2023-10-08T23:34:24;19.70;35.10
77039;DHT22;65970;50.476;4.840;2023-10-08T23:39:25;19.70;35.20
77039;DHT22;65970;50.476;4.840;2023-10-08T23:44:25;19.70;35.20
77039;DHT22;65970;50.476;4.840;2023-10-08T23:49:26;19.60;35.20
77039;DHT22;65970;50.476;4.840;2023-10-08T23:54:27;19.60;35.20
77039;DHT22;65970;50.476;4.840;2023-10-08T23:59:29;19.60;34.40
